203-й пикет

Карта отелей и гостиниц, располагающихся рядом с аэропортом 203-й пикет :

203-й пикет Республика Коми 64° 19' 50.9988" N, 57° 22' 19.3188" E
203-й пикет Республика Коми 64° 19' 50.9988" N, 57° 22' 19.3188" E
Код аэродрома ИКАО
UUXD
Код аэродрома RU
УУЬД
Координаты
N64.33083° E057.37203°
Превышение над уровнем моря
110
Основная полоса
08/26
Курс магнитный
081,4/261,4
Длина основной ВПП
18
Ширина основной ВПП
18
Покрытие основной ВПП
Твёрдое (бетон)
Освещение ВПП
Нет
Тип: 
Вертодром
Класс аэродрома: 
Принадлежность: 
ГА
Статус: 
Действующий
Сайт: 
E-mail аэродрома: 
gazavia, gsp@mail.ru
Страна: 
Россия
Регион: 
Республика Коми
Город: 
Дополнительная информация: 
Оператор: ОАО «Севергазпром» Ухтинский филиал ООО Авиапредприятие «Газпромавиа». Взлет и посадка в секторе Ам 040°-140° с ПП2 запрещены.


Найти трансфер

С помощью этой формы Вы можете найти трансфер из аэропорта 203-й пикет в город, аэропорт или вокзал:

Погода в аэропортах:

Авиационная погода в Ивало

Регион: 
Погода METAR: 
EFIV 290720Z AUTO 02010KT 9999 -RA BKN017 08/06 Q1012
Время наблюдения
2022-05-29T07:20:00Z
Температура C
8.0
Точка росы
6.0
Направление ветра
20
Скорость ветра (узлы)
10
Метео видимость
6.21
Облачность
BKN
Нижняя граница облачности (футы)
1700
Явления погоды
-RA
Условия полета
MVFR
BKN – значительная (рассеянная, разорванная) облачность;
-RA - слабый дождь;

Авиационная погода в Ботсфьорде

Регион: 
Погода METAR: 
ENBS 290720Z AUTO 02011KT 0100 FG VV001 03/03 Q1016
Время наблюдения
2022-05-29T07:20:00Z
Температура C
3.0
Точка росы
3.0
Направление ветра
20
Скорость ветра (узлы)
11
Метео видимость
0.06
Облачность
OVX
Нижняя граница облачности (футы)
0
Явления погоды
FG
Условия полета
LIFR
FG – туман (небо не видно, температура воздуха выше нуля или ноль);

Авиационная погода в Бухте Провидения

Погода METAR: 
UHMD 270400Z 18005MPS 6000 BCFG SCT006 02/00 Q1016 RMK QBB200 MT OBSC QFE761/1015
Время наблюдения
2022-05-27T04:00:00Z
Температура C
2.0
Точка росы
0.0
Направление ветра
180
Скорость ветра (узлы)
10
Метео видимость
3.73
Облачность
SCT
Нижняя граница облачности (футы)
600
Явления погоды
BCFG
Условия полета
MVFR
Аэропорт подробнее: 
SCT – разбросанная отдельная облачность;
FG – туман (небо не видно, температура воздуха выше нуля или ноль);

Авиационная погода в аэропорту Имени Алексея Леонова

Регион: 
Погода METAR: 
UNEE 290730Z 28005MPS 9999 -RA SCT040 20/10 Q1011 R23/CLRD60 NOSIG RMK QFE735
Время наблюдения
2022-05-29T07:30:00Z
Температура C
20.0
Точка росы
10.0
Направление ветра
280
Скорость ветра (узлы)
10
Метео видимость
6.21
Облачность
SCT
Нижняя граница облачности (футы)
4000
Явления погоды
-RA
Условия полета
VFR
Аэропорт подробнее: 
SCT – разбросанная отдельная облачность;
-RA - слабый дождь;